sensor_id;sensor_type;location;lat;lon;timestamp;temperature;humidity
5980;DHT22;3016;50.308;8.258;2023-04-05T00:08:25;-0.90;1.00
5980;DHT22;3016;50.308;8.258;2023-04-05T00:11:29;-0.90;1.00
5980;DHT22;3016;50.308;8.258;2023-04-05T00:14:31;-0.90;1.00
5980;DHT22;3016;50.308;8.258;2023-04-05T00:17:34;-0.90;1.00
5980;DHT22;3016;50.308;8.258;2023-04-05T00:20:36;-1.00;1.00
5980;DHT22;3016;50.308;8.258;2023-04-05T00:23:38;-1.00;1.00
5980;DHT22;3016;50.308;8.258;2023-04-05T00:26:41;-1.00;1.00
5980;DHT22;3016;50.308;8.258;2023-04-05T00:29:47;-1.10;1.00
5980;DHT22;3016;50.308;8.258;2023-04-05T00:32:49;-1.10;1.00
5980;DHT22;3016;50.308;8.258;2023-04-05T00:35:51;-1.10;1.00
5980;DHT22;3016;50.308;8.258;2023-04-05T00:38:54;-1.10;1.00
5980;DHT22;3016;50.308;8.258;2023-04-05T00:41:56;-1.20;1.00
5980;DHT22;3016;50.308;8.258;2023-04-05T00:44:57;-1.20;1.00
5980;DHT22;3016;50.308;8.258;2023-04-05T00:47:59;-1.30;1.00
5980;DHT22;3016;50.308;8.258;2023-04-05T00:51:01;-1.30;1.00
5980;DHT22;3016;50.308;8.258;2023-04-05T00:54:03;-1.30;1.00
5980;DHT22;3016;50.308;8.258;2023-04-05T00:57:05;-1.30;1.00
5980;DHT22;3016;50.308;8.258;2023-04-05T01:00:08;-1.30;1.00
5980;DHT22;3016;50.308;8.258;2023-04-05T01:03:11;-1.40;1.00
5980;DHT22;3016;50.308;8.258;2023-04-05T01:09:56;-1.50;1.00
5980;DHT22;3016;50.308;8.258;2023-04-05T01:12:59;-1.50;1.00
5980;DHT22;3016;50.308;8.258;2023-04-05T01:16:01;-1.50;1.00
5980;DHT22;3016;50.308;8.258;2023-04-05T01:19:09;-1.60;1.00
5980;DHT22;3016;50.308;8.258;2023-04-05T01:29:44;-1.60;1.00
5980;DHT22;3016;50.308;8.258;2023-04-05T01:39:31;-1.70;1.00
5980;DHT22;3016;50.308;8.258;2023-04-05T01:42:35;-1.80;1.00
5980;DHT22;3016;50.308;8.258;2023-04-05T01:45:36;-1.80;1.00
5980;DHT22;3016;50.308;8.258;2023-04-05T01:48:37;-1.80;1.00
5980;DHT22;3016;50.308;8.258;2023-04-05T01:51:38;-1.80;1.00
5980;DHT22;3016;50.308;8.258;2023-04-05T01:54:41;-1.90;1.00
5980;DHT22;3016;50.308;8.258;2023-04-05T01:57:41;-1.90;1.00
5980;DHT22;3016;50.308;8.258;2023-04-05T02:00:42;-1.90;1.00
5980;DHT22;3016;50.308;8.258;2023-04-05T02:03:43;-2.00;1.00
5980;DHT22;3016;50.308;8.258;2023-04-05T02:06:44;-2.00;1.00
5980;DHT22;3016;50.308;8.258;2023-04-05T02:09:44;-2.00;1.00
5980;DHT22;3016;50.308;8.258;2023-04-05T02:12:45;-2.10;1.00
5980;DHT22;3016;50.308;8.258;2023-04-05T02:15:47;-2.10;1.00
5980;DHT22;3016;50.308;8.258;2023-04-05T02:18:49;-2.10;1.00
5980;DHT22;3016;50.308;8.258;2023-04-05T02:21:50;-2.10;1.00
5980;DHT22;3016;50.308;8.258;2023-04-05T02:24:53;-2.10;1.00
5980;DHT22;3016;50.308;8.258;2023-04-05T02:27:53;-2.20;1.00
5980;DHT22;3016;50.308;8.258;2023-04-05T02:30:54;-2.20;1.00
5980;DHT22;3016;50.308;8.258;2023-04-05T02:33:55;-2.30;1.00
5980;DHT22;3016;50.308;8.258;2023-04-05T02:36:57;-2.30;1.00
5980;DHT22;3016;50.308;8.258;2023-04-05T02:39:58;-2.30;1.00
5980;DHT22;3016;50.308;8.258;2023-04-05T02:42:59;-2.40;1.00
5980;DHT22;3016;50.308;8.258;2023-04-05T02:46:00;-2.40;1.00
5980;DHT22;3016;50.308;8.258;2023-04-05T02:49:01;-2.40;1.00
5980;DHT22;3016;50.308;8.258;2023-04-05T02:52:02;-2.40;1.00
5980;DHT22;3016;50.308;8.258;2023-04-05T02:55:06;-2.40;1.00
5980;DHT22;3016;50.308;8.258;2023-04-05T02:58:07;-2.40;1.00
5980;DHT22;3016;50.308;8.258;2023-04-05T03:01:08;-2.40;1.00
5980;DHT22;3016;50.308;8.258;2023-04-05T03:04:11;-2.40;1.00
5980;DHT22;3016;50.308;8.258;2023-04-05T03:07:12;-2.50;1.00
5980;DHT22;3016;50.308;8.258;2023-04-05T03:10:20;-2.50;1.00
5980;DHT22;3016;50.308;8.258;2023-04-05T03:13:28;-2.60;1.00
5980;DHT22;3016;50.308;8.258;2023-04-05T03:16:28;-2.60;1.00
5980;DHT22;3016;50.308;8.258;2023-04-05T03:19:29;-2.70;1.00
5980;DHT22;3016;50.308;8.258;2023-04-05T03:22:31;-2.70;1.00
5980;DHT22;3016;50.308;8.258;2023-04-05T03:25:34;-2.70;1.00
5980;DHT22;3016;50.308;8.258;2023-04-05T03:28:35;-2.70;1.00
5980;DHT22;3016;50.308;8.258;2023-04-05T03:31:36;-2.80;1.00
5980;DHT22;3016;50.308;8.258;2023-04-05T03:34:37;-2.80;1.00
5980;DHT22;3016;50.308;8.258;2023-04-05T03:37:38;-2.80;1.00
5980;DHT22;3016;50.308;8.258;2023-04-05T03:40:38;-2.80;1.00
5980;DHT22;3016;50.308;8.258;2023-04-05T03:43:39;-2.80;1.00
5980;DHT22;3016;50.308;8.258;2023-04-05T03:46:43;-2.90;1.00
5980;DHT22;3016;50.308;8.258;2023-04-05T03:49:44;-2.90;1.00
5980;DHT22;3016;50.308;8.258;2023-04-05T03:52:45;-3.00;1.00
5980;DHT22;3016;50.308;8.258;2023-04-05T03:55:46;-3.00;1.00
5980;DHT22;3016;50.308;8.258;2023-04-05T03:58:51;-3.10;1.00
5980;DHT22;3016;50.308;8.258;2023-04-05T04:01:52;-3.10;1.00
5980;DHT22;3016;50.308;8.258;2023-04-05T04:04:53;-3.10;1.00
5980;DHT22;3016;50.308;8.258;2023-04-05T04:07:53;-3.10;1.00
5980;DHT22;3016;50.308;8.258;2023-04-05T04:10:54;-3.10;1.00
5980;DHT22;3016;50.308;8.258;2023-04-05T04:13:55;-3.10;1.00
5980;DHT22;3016;50.308;8.258;2023-04-05T04:16:55;-3.20;1.00
5980;DHT22;3016;50.308;8.258;2023-04-05T04:19:56;-3.30;1.00
5980;DHT22;3016;50.308;8.258;2023-04-05T04:22:57;-3.30;1.00
5980;DHT22;3016;50.308;8.258;2023-04-05T04:25:58;-3.20;1.00
5980;DHT22;3016;50.308;8.258;2023-04-05T04:29:00;-3.30;1.00
5980;DHT22;3016;50.308;8.258;2023-04-05T04:32:02;-3.30;1.00
5980;DHT22;3016;50.308;8.258;2023-04-05T04:35:06;-3.30;1.00
5980;DHT22;3016;50.308;8.258;2023-04-05T04:38:08;-3.40;1.00
5980;DHT22;3016;50.308;8.258;2023-04-05T04:41:10;-3.40;1.00
5980;DHT22;3016;50.308;8.258;2023-04-05T04:44:11;-3.40;1.00
5980;DHT22;3016;50.308;8.258;2023-04-05T04:47:14;-3.40;1.00
5980;DHT22;3016;50.308;8.258;2023-04-05T04:50:17;-3.40;1.00
5980;DHT22;3016;50.308;8.258;2023-04-05T04:53:19;-3.50;1.00
5980;DHT22;3016;50.308;8.258;2023-04-05T04:56:21;-3.50;1.00
5980;DHT22;3016;50.308;8.258;2023-04-05T04:59:22;-3.50;1.00
5980;DHT22;3016;50.308;8.258;2023-04-05T05:02:23;-3.40;1.00
5980;DHT22;3016;50.308;8.258;2023-04-05T05:05:24;-3.40;1.00
5980;DHT22;3016;50.308;8.258;2023-04-05T05:08:26;-3.50;1.00
5980;DHT22;3016;50.308;8.258;2023-04-05T05:11:27;-3.50;1.00
5980;DHT22;3016;50.308;8.258;2023-04-05T05:14:28;-3.50;1.00
5980;DHT22;3016;50.308;8.258;2023-04-05T05:17:29;-3.50;1.00
5980;DHT22;3016;50.308;8.258;2023-04-05T05:20:31;-3.50;1.00
5980;DHT22;3016;50.308;8.258;2023-04-05T05:23:32;-3.50;1.00
5980;DHT22;3016;50.308;8.258;2023-04-05T05:26:33;-3.50;1.00
5980;DHT22;3016;50.308;8.258;2023-04-05T05:29:33;-3.50;1.00
5980;DHT22;3016;50.308;8.258;2023-04-05T05:32:34;-3.50;1.00
5980;DHT22;3016;50.308;8.258;2023-04-05T05:35:35;-3.50;1.00
5980;DHT22;3016;50.308;8.258;2023-04-05T05:38:37;-3.50;1.00
5980;DHT22;3016;50.308;8.258;2023-04-05T05:41:37;-3.40;1.00
5980;DHT22;3016;50.308;8.258;2023-04-05T05:44:38;-3.40;1.00
5980;DHT22;3016;50.308;8.258;2023-04-05T05:47:39;-3.30;1.00
5980;DHT22;3016;50.308;8.258;2023-04-05T05:50:41;-3.20;1.00
5980;DHT22;3016;50.308;8.258;2023-04-05T05:53:41;-3.20;1.00
5980;DHT22;3016;50.308;8.258;2023-04-05T05:56:42;-3.10;1.00
5980;DHT22;3016;50.308;8.258;2023-04-05T05:59:43;-3.00;1.00
5980;DHT22;3016;50.308;8.258;2023-04-05T06:02:44;-2.90;1.00
5980;DHT22;3016;50.308;8.258;2023-04-05T06:05:56;-2.70;1.00
5980;DHT22;3016;50.308;8.258;2023-04-05T06:08:58;-2.60;1.00
5980;DHT22;3016;50.308;8.258;2023-04-05T06:11:58;-2.40;1.00
5980;DHT22;3016;50.308;8.258;2023-04-05T06:15:00;-2.30;1.00
5980;DHT22;3016;50.308;8.258;2023-04-05T06:18:01;-2.10;1.00
5980;DHT22;3016;50.308;8.258;2023-04-05T06:21:02;-1.90;1.00
5980;DHT22;3016;50.308;8.258;2023-04-05T06:24:03;-1.90;1.00
5980;DHT22;3016;50.308;8.258;2023-04-05T06:27:04;-1.80;1.00
5980;DHT22;3016;50.308;8.258;2023-04-05T06:30:05;-1.70;1.00
5980;DHT22;3016;50.308;8.258;2023-04-05T06:33:06;-1.60;1.00
5980;DHT22;3016;50.308;8.258;2023-04-05T06:36:08;-1.60;1.00
5980;DHT22;3016;50.308;8.258;2023-04-05T06:39:09;-1.50;1.00
5980;DHT22;3016;50.308;8.258;2023-04-05T06:42:10;-1.30;1.00
5980;DHT22;3016;50.308;8.258;2023-04-05T06:45:11;-1.20;1.00
5980;DHT22;3016;50.308;8.258;2023-04-05T06:48:12;-1.10;1.00
5980;DHT22;3016;50.308;8.258;2023-04-05T06:51:14;-1.00;1.00
5980;DHT22;3016;50.308;8.258;2023-04-05T06:54:16;-1.00;1.00
5980;DHT22;3016;50.308;8.258;2023-04-05T06:57:20;-0.90;1.00
5980;DHT22;3016;50.308;8.258;2023-04-05T07:06:42;-0.40;1.00
5980;DHT22;3016;50.308;8.258;2023-04-05T07:09:44;-0.20;1.00
5980;DHT22;3016;50.308;8.258;2023-04-05T07:12:46;0.00;1.00
5980;DHT22;3016;50.308;8.258;2023-04-05T07:22:08;0.70;1.00
5980;DHT22;3016;50.308;8.258;2023-04-05T07:28:20;1.10;1.00
5980;DHT22;3016;50.308;8.258;2023-04-05T08:08:17;4.70;1.00
5980;DHT22;3016;50.308;8.258;2023-04-05T08:11:19;5.20;1.00
5980;DHT22;3016;50.308;8.258;2023-04-05T08:14:20;5.50;1.00
5980;DHT22;3016;50.308;8.258;2023-04-05T08:20:32;5.80;1.00
5980;DHT22;3016;50.308;8.258;2023-04-05T08:23:38;5.70;1.00
5980;DHT22;3016;50.308;8.258;2023-04-05T08:36:12;6.40;1.00
5980;DHT22;3016;50.308;8.258;2023-04-05T08:39:15;6.70;1.00
5980;DHT22;3016;50.308;8.258;2023-04-05T08:45:29;7.30;1.00
5980;DHT22;3016;50.308;8.258;2023-04-05T08:48:34;7.50;1.00
5980;DHT22;3016;50.308;8.258;2023-04-05T08:51:38;7.60;1.00
5980;DHT22;3016;50.308;8.258;2023-04-05T08:57:53;7.80;1.00
5980;DHT22;3016;50.308;8.258;2023-04-05T09:10:32;8.00;1.00
5980;DHT22;3016;50.308;8.258;2023-04-05T09:13:53;7.80;1.00
5980;DHT22;3016;50.308;8.258;2023-04-05T09:20:21;7.90;1.00
5980;DHT22;3016;50.308;8.258;2023-04-05T19:33:42;3.10;1.00
5980;DHT22;3016;50.308;8.258;2023-04-05T19:36:44;3.00;1.00
5980;DHT22;3016;50.308;8.258;2023-04-05T20:33:52;1.50;1.00
5980;DHT22;3016;50.308;8.258;2023-04-05T20:46:30;1.50;1.00
5980;DHT22;3016;50.308;8.258;2023-04-05T20:56:42;1.20;1.00
5980;DHT22;3016;50.308;8.258;2023-04-05T21:02:56;1.00;1.00
5980;DHT22;3016;50.308;8.258;2023-04-05T21:06:10;0.90;1.00
5980;DHT22;3016;50.308;8.258;2023-04-05T21:09:12;0.90;1.00
5980;DHT22;3016;50.308;8.258;2023-04-05T21:12:15;0.80;1.00
5980;DHT22;3016;50.308;8.258;2023-04-05T21:15:19;0.90;1.00
5980;DHT22;3016;50.308;8.258;2023-04-05T21:18:30;0.90;1.00
5980;DHT22;3016;50.308;8.258;2023-04-05T21:24:48;0.70;1.00
5980;DHT22;3016;50.308;8.258;2023-04-05T21:34:27;0.40;1.00
5980;DHT22;3016;50.308;8.258;2023-04-05T21:37:30;0.40;1.00
5980;DHT22;3016;50.308;8.258;2023-04-05T21:40:35;0.40;1.00
5980;DHT22;3016;50.308;8.258;2023-04-05T21:43:39;0.40;1.00
5980;DHT22;3016;50.308;8.258;2023-04-05T21:49:57;0.30;1.00
5980;DHT22;3016;50.308;8.258;2023-04-05T21:56:11;0.20;1.00
5980;DHT22;3016;50.308;8.258;2023-04-05T21:59:15;0.20;1.00
5980;DHT22;3016;50.308;8.258;2023-04-05T22:02:17;0.20;1.00
5980;DHT22;3016;50.308;8.258;2023-04-05T22:05:19;0.20;1.00
5980;DHT22;3016;50.308;8.258;2023-04-05T22:08:28;0.30;1.00
5980;DHT22;3016;50.308;8.258;2023-04-05T22:14:41;0.30;1.00
5980;DHT22;3016;50.308;8.258;2023-04-05T22:17:43;0.20;1.00
5980;DHT22;3016;50.308;8.258;2023-04-05T22:20:47;0.20;1.00
5980;DHT22;3016;50.308;8.258;2023-04-05T22:23:49;0.10;1.00
5980;DHT22;3016;50.308;8.258;2023-04-05T22:26:52;0.10;1.00
5980;DHT22;3016;50.308;8.258;2023-04-05T22:29:57;0.00;1.00
5980;DHT22;3016;50.308;8.258;2023-04-05T22:33:02;0.00;1.00
5980;DHT22;3016;50.308;8.258;2023-04-05T22:36:06;0.00;1.00
5980;DHT22;3016;50.308;8.258;2023-04-05T22:39:11;0.00;1.00
5980;DHT22;3016;50.308;8.258;2023-04-05T22:42:32;-0.10;1.00
5980;DHT22;3016;50.308;8.258;2023-04-05T22:45:34;-0.10;1.00
5980;DHT22;3016;50.308;8.258;2023-04-05T22:48:37;-0.10;1.00
5980;DHT22;3016;50.308;8.258;2023-04-05T22:51:39;-0.20;1.00
5980;DHT22;3016;50.308;8.258;2023-04-05T22:54:45;-0.10;1.00
5980;DHT22;3016;50.308;8.258;2023-04-05T22:57:47;-0.20;1.00
5980;DHT22;3016;50.308;8.258;2023-04-05T23:00:49;-0.30;1.00
5980;DHT22;3016;50.308;8.258;2023-04-05T23:03:51;-0.40;1.00
5980;DHT22;3016;50.308;8.258;2023-04-05T23:06:53;-0.30;1.00
5980;DHT22;3016;50.308;8.258;2023-04-05T23:09:55;-0.30;1.00
5980;DHT22;3016;50.308;8.258;2023-04-05T23:12:58;-0.40;1.00
5980;DHT22;3016;50.308;8.258;2023-04-05T23:16:02;-0.40;1.00
5980;DHT22;3016;50.308;8.258;2023-04-05T23:19:04;-0.30;1.00
5980;DHT22;3016;50.308;8.258;2023-04-05T23:22:08;-0.40;1.00
5980;DHT22;3016;50.308;8.258;2023-04-05T23:25:11;-0.40;1.00
5980;DHT22;3016;50.308;8.258;2023-04-05T23:28:13;-0.40;1.00
5980;DHT22;3016;50.308;8.258;2023-04-05T23:34:27;-0.40;1.00
5980;DHT22;3016;50.308;8.258;2023-04-05T23:37:29;-0.40;1.00
5980;DHT22;3016;50.308;8.258;2023-04-05T23:40:32;-0.30;1.00
5980;DHT22;3016;50.308;8.258;2023-04-05T23:43:37;-0.40;1.00
5980;DHT22;3016;50.308;8.258;2023-04-05T23:50:29;-0.50;1.00
5980;DHT22;3016;50.308;8.258;2023-04-05T23:53:31;-0.50;1.00
5980;DHT22;3016;50.308;8.258;2023-04-05T23:56:33;-0.50;1.00
5980;DHT22;3016;50.308;8.258;2023-04-05T23:59:38;-0.60;1.00
